sensor_id;sensor_type;location;lat;lon;timestamp;pressure;altitude;pressure_sealevel;temperature;humidity
73941;BME280;62294;48.554;10.202;2023-05-20T00:01:26;93250.84;;;12.26;100.00
73941;BME280;62294;48.554;10.202;2023-05-20T00:03:52;93220.09;;;12.33;100.00
73941;BME280;62294;48.554;10.202;2023-05-20T00:06:19;93212.81;;;12.25;100.00
73941;BME280;62294;48.554;10.202;2023-05-20T00:08:46;93206.00;;;12.19;100.00
73941;BME280;62294;48.554;10.202;2023-05-20T00:11:12;93188.94;;;12.20;100.00
73941;BME280;62294;48.554;10.202;2023-05-20T00:13:39;93176.53;;;12.16;100.00
73941;BME280;62294;48.554;10.202;2023-05-20T00:16:06;93141.00;;;12.20;100.00
73941;BME280;62294;48.554;10.202;2023-05-20T00:18:32;93132.63;;;12.13;100.00
73941;BME280;62294;48.554;10.202;2023-05-20T00:20:59;93092.22;;;12.11;100.00
73941;BME280;62294;48.554;10.202;2023-05-20T00:23:25;93040.78;;;12.02;100.00
73941;BME280;62294;48.554;10.202;2023-05-20T00:25:52;93026.47;;;11.98;100.00
73941;BME280;62294;48.554;10.202;2023-05-20T00:28:18;93010.34;;;11.94;100.00
73941;BME280;62294;48.554;10.202;2023-05-20T00:30:45;92996.34;;;11.89;100.00
73941;BME280;62294;48.554;10.202;2023-05-20T00:33:12;92967.38;;;11.87;100.00
73941;BME280;62294;48.554;10.202;2023-05-20T00:35:38;92941.50;;;11.79;100.00
73941;BME280;62294;48.554;10.202;2023-05-20T00:38:05;92927.41;;;11.79;100.00
73941;BME280;62294;48.554;10.202;2023-05-20T00:40:31;92897.03;;;11.80;100.00
73941;BME280;62294;48.554;10.202;2023-05-20T00:42:58;92893.63;;;11.66;100.00
73941;BME280;62294;48.554;10.202;2023-05-20T00:45:25;92795.97;;;11.66;100.00
73941;BME280;62294;48.554;10.202;2023-05-20T00:47:51;92771.56;;;11.64;100.00
73941;BME280;62294;48.554;10.202;2023-05-20T00:50:18;92780.44;;;11.60;100.00
73941;BME280;62294;48.554;10.202;2023-05-20T00:52:45;92752.53;;;11.49;100.00
73941;BME280;62294;48.554;10.202;2023-05-20T00:55:13;92712.53;;;11.54;100.00
73941;BME280;62294;48.554;10.202;2023-05-20T00:57:39;92707.47;;;11.43;100.00
73941;BME280;62294;48.554;10.202;2023-05-20T01:00:08;92681.63;;;11.35;100.00
73941;BME280;62294;48.554;10.202;2023-05-20T01:02:35;92652.97;;;11.32;100.00
73941;BME280;62294;48.554;10.202;2023-05-20T01:05:02;92621.75;;;11.38;100.00
73941;BME280;62294;48.554;10.202;2023-05-20T01:07:29;92622.03;;;11.36;100.00
73941;BME280;62294;48.554;10.202;2023-05-20T01:09:56;92594.69;;;11.36;100.00
73941;BME280;62294;48.554;10.202;2023-05-20T01:12:50;92573.56;;;11.39;100.00
73941;BME280;62294;48.554;10.202;2023-05-20T01:15:20;92559.19;;;11.40;100.00
73941;BME280;62294;48.554;10.202;2023-05-20T01:17:51;92549.16;;;11.37;100.00
73941;BME280;62294;48.554;10.202;2023-05-20T01:20:23;92534.94;;;11.33;100.00
73941;BME280;62294;48.554;10.202;2023-05-20T01:22:55;92516.16;;;11.38;100.00
73941;BME280;62294;48.554;10.202;2023-05-20T01:25:22;92509.91;;;11.34;100.00
73941;BME280;62294;48.554;10.202;2023-05-20T01:27:51;92488.66;;;11.43;100.00
73941;BME280;62294;48.554;10.202;2023-05-20T01:30:19;92471.28;;;11.46;100.00
73941;BME280;62294;48.554;10.202;2023-05-20T01:32:53;92462.38;;;11.41;100.00
73941;BME280;62294;48.554;10.202;2023-05-20T01:35:21;92458.16;;;11.40;100.00
73941;BME280;62294;48.554;10.202;2023-05-20T01:37:49;92450.19;;;11.40;100.00
73941;BME280;62294;48.554;10.202;2023-05-20T01:40:17;92459.06;;;11.27;100.00
73941;BME280;62294;48.554;10.202;2023-05-20T01:42:45;92449.19;;;11.19;100.00
73941;BME280;62294;48.554;10.202;2023-05-20T01:45:11;92429.81;;;11.19;100.00
73941;BME280;62294;48.554;10.202;2023-05-20T01:47:38;92410.59;;;11.13;100.00
73941;BME280;62294;48.554;10.202;2023-05-20T01:50:05;92390.88;;;11.14;100.00
73941;BME280;62294;48.554;10.202;2023-05-20T01:52:32;92378.50;;;11.10;100.00
73941;BME280;62294;48.554;10.202;2023-05-20T01:54:59;92386.00;;;11.08;100.00
73941;BME280;62294;48.554;10.202;2023-05-20T01:57:25;92397.09;;;11.01;100.00
73941;BME280;62294;48.554;10.202;2023-05-20T01:59:52;92396.16;;;10.97;100.00
73941;BME280;62294;48.554;10.202;2023-05-20T02:02:19;92355.06;;;10.95;100.00
73941;BME280;62294;48.554;10.202;2023-05-20T02:04:48;92344.44;;;10.95;100.00
73941;BME280;62294;48.554;10.202;2023-05-20T02:07:17;92329.56;;;10.85;100.00
73941;BME280;62294;48.554;10.202;2023-05-20T02:09:46;92312.69;;;10.81;100.00
73941;BME280;62294;48.554;10.202;2023-05-20T02:12:13;92280.03;;;10.89;100.00
73941;BME280;62294;48.554;10.202;2023-05-20T02:14:46;92272.06;;;10.89;100.00
73941;BME280;62294;48.554;10.202;2023-05-20T02:17:13;92248.94;;;10.98;100.00
73941;BME280;62294;48.554;10.202;2023-05-20T02:19:43;92225.50;;;11.00;100.00
73941;BME280;62294;48.554;10.202;2023-05-20T02:22:10;92214.06;;;11.00;100.00
73941;BME280;62294;48.554;10.202;2023-05-20T02:24:36;92203.75;;;10.98;100.00
73941;BME280;62294;48.554;10.202;2023-05-20T02:27:03;92194.38;;;11.01;100.00
73941;BME280;62294;48.554;10.202;2023-05-20T02:29:31;92173.59;;;11.03;100.00
73941;BME280;62294;48.554;10.202;2023-05-20T02:31:58;92149.56;;;10.99;100.00
73941;BME280;62294;48.554;10.202;2023-05-20T02:34:26;92128.72;;;11.10;100.00
73941;BME280;62294;48.554;10.202;2023-05-20T02:36:55;92111.25;;;11.09;100.00
73941;BME280;62294;48.554;10.202;2023-05-20T02:39:22;92091.03;;;11.16;100.00
73941;BME280;62294;48.554;10.202;2023-05-20T02:41:48;92077.56;;;11.21;100.00
73941;BME280;62294;48.554;10.202;2023-05-20T02:44:14;92046.47;;;11.22;100.00
73941;BME280;62294;48.554;10.202;2023-05-20T02:46:42;91931.03;;;11.31;100.00
73941;BME280;62294;48.554;10.202;2023-05-20T02:49:09;91711.56;;;11.43;100.00
73941;BME280;62294;48.554;10.202;2023-05-20T02:51:35;91622.06;;;11.47;100.00
73941;BME280;62294;48.554;10.202;2023-05-20T02:54:02;91626.72;;;11.37;100.00
73941;BME280;62294;48.554;10.202;2023-05-20T02:56:28;91613.00;;;11.48;100.00
73941;BME280;62294;48.554;10.202;2023-05-20T02:58:55;91624.16;;;11.41;100.00
73941;BME280;62294;48.554;10.202;2023-05-20T03:01:22;91623.50;;;11.44;100.00
73941;BME280;62294;48.554;10.202;2023-05-20T03:03:48;91621.19;;;11.55;100.00
73941;BME280;62294;48.554;10.202;2023-05-20T03:06:15;91623.75;;;11.51;100.00
73941;BME280;62294;48.554;10.202;2023-05-20T03:08:42;91614.88;;;11.59;100.00
73941;BME280;62294;48.554;10.202;2023-05-20T03:11:08;91644.78;;;11.44;100.00
73941;BME280;62294;48.554;10.202;2023-05-20T03:13:35;91637.38;;;11.50;100.00
73941;BME280;62294;48.554;10.202;2023-05-20T03:16:02;91630.94;;;11.51;100.00
73941;BME280;62294;48.554;10.202;2023-05-20T03:18:28;91624.06;;;11.62;100.00
73941;BME280;62294;48.554;10.202;2023-05-20T03:20:55;91630.81;;;11.59;100.00
73941;BME280;62294;48.554;10.202;2023-05-20T03:23:22;91663.13;;;11.70;100.00
73941;BME280;62294;48.554;10.202;2023-05-20T03:25:48;91674.28;;;11.63;100.00
73941;BME280;62294;48.554;10.202;2023-05-20T03:28:14;91678.81;;;11.63;100.00
73941;BME280;62294;48.554;10.202;2023-05-20T03:30:41;91686.34;;;11.61;100.00
73941;BME280;62294;48.554;10.202;2023-05-20T03:33:08;91683.94;;;11.68;100.00
73941;BME280;62294;48.554;10.202;2023-05-20T03:35:34;91675.09;;;11.76;100.00
73941;BME280;62294;48.554;10.202;2023-05-20T03:38:02;91709.59;;;11.52;100.00
73941;BME280;62294;48.554;10.202;2023-05-20T03:40:28;91704.28;;;11.52;100.00
73941;BME280;62294;48.554;10.202;2023-05-20T03:42:54;91694.97;;;11.58;100.00
73941;BME280;62294;48.554;10.202;2023-05-20T03:45:21;91698.72;;;11.45;100.00
73941;BME280;62294;48.554;10.202;2023-05-20T03:47:48;91684.66;;;11.44;100.00
73941;BME280;62294;48.554;10.202;2023-05-20T03:50:15;91654.66;;;11.56;100.00
73941;BME280;62294;48.554;10.202;2023-05-20T03:52:42;91643.44;;;11.50;100.00
73941;BME280;62294;48.554;10.202;2023-05-20T03:55:09;91646.69;;;11.56;100.00
73941;BME280;62294;48.554;10.202;2023-05-20T03:57:35;91649.66;;;11.42;100.00
73941;BME280;62294;48.554;10.202;2023-05-20T04:00:04;91631.38;;;11.53;100.00
73941;BME280;62294;48.554;10.202;2023-05-20T04:02:36;91635.38;;;11.47;100.00
73941;BME280;62294;48.554;10.202;2023-05-20T04:05:04;91624.53;;;11.52;100.00
73941;BME280;62294;48.554;10.202;2023-05-20T04:07:33;91619.41;;;11.47;100.00
73941;BME280;62294;48.554;10.202;2023-05-20T04:10:02;91630.25;;;11.41;100.00
73941;BME280;62294;48.554;10.202;2023-05-20T04:12:29;91607.00;;;11.51;100.00
73941;BME280;62294;48.554;10.202;2023-05-20T04:14:58;91604.69;;;11.49;100.00
73941;BME280;62294;48.554;10.202;2023-05-20T04:17:29;91573.31;;;11.67;100.00
73941;BME280;62294;48.554;10.202;2023-05-20T04:19:57;91585.19;;;11.57;100.00
73941;BME280;62294;48.554;10.202;2023-05-20T04:22:25;91602.69;;;11.46;100.00
73941;BME280;62294;48.554;10.202;2023-05-20T04:24:52;91578.19;;;11.53;100.00
73941;BME280;62294;48.554;10.202;2023-05-20T04:27:18;91578.88;;;11.50;100.00
73941;BME280;62294;48.554;10.202;2023-05-20T04:29:45;91577.97;;;11.46;100.00
73941;BME280;62294;48.554;10.202;2023-05-20T04:32:13;91555.94;;;11.57;100.00
73941;BME280;62294;48.554;10.202;2023-05-20T04:34:40;91538.31;;;11.65;100.00
73941;BME280;62294;48.554;10.202;2023-05-20T04:37:06;91542.84;;;11.64;100.00
73941;BME280;62294;48.554;10.202;2023-05-20T04:39:35;91532.59;;;11.75;100.00
73941;BME280;62294;48.554;10.202;2023-05-20T04:42:02;91535.47;;;11.82;100.00
73941;BME280;62294;48.554;10.202;2023-05-20T04:44:28;91546.31;;;11.77;100.00
73941;BME280;62294;48.554;10.202;2023-05-20T04:46:55;91556.84;;;11.73;100.00
73941;BME280;62294;48.554;10.202;2023-05-20T04:49:25;91534.19;;;11.91;100.00
73941;BME280;62294;48.554;10.202;2023-05-20T04:51:52;91545.19;;;11.90;100.00
73941;BME280;62294;48.554;10.202;2023-05-20T04:54:20;91562.03;;;11.94;100.00
73941;BME280;62294;48.554;10.202;2023-05-20T04:56:47;91553.16;;;12.02;100.00
73941;BME280;62294;48.554;10.202;2023-05-20T04:59:14;91532.91;;;12.25;100.00
73941;BME280;62294;48.554;10.202;2023-05-20T05:01:41;91529.88;;;12.39;100.00
73941;BME280;62294;48.554;10.202;2023-05-20T05:04:07;91599.47;;;12.01;100.00
73941;BME280;62294;48.554;10.202;2023-05-20T05:06:34;91622.13;;;11.95;100.00
73941;BME280;62294;48.554;10.202;2023-05-20T05:09:01;91622.44;;;12.05;100.00
73941;BME280;62294;48.554;10.202;2023-05-20T05:11:28;91636.06;;;12.04;100.00
73941;BME280;62294;48.554;10.202;2023-05-20T05:13:54;91628.97;;;12.20;100.00
73941;BME280;62294;48.554;10.202;2023-05-20T05:16:21;91611.41;;;12.31;100.00
73941;BME280;62294;48.554;10.202;2023-05-20T05:18:48;91674.19;;;12.08;100.00
73941;BME280;62294;48.554;10.202;2023-05-20T05:21:15;91638.47;;;12.33;100.00
73941;BME280;62294;48.554;10.202;2023-05-20T05:23:42;91664.66;;;12.19;100.00
73941;BME280;62294;48.554;10.202;2023-05-20T05:26:08;91613.41;;;12.62;100.00
73941;BME280;62294;48.554;10.202;2023-05-20T05:28:35;91638.59;;;12.64;100.00
73941;BME280;62294;48.554;10.202;2023-05-20T05:31:02;91651.41;;;12.87;100.00
73941;BME280;62294;48.554;10.202;2023-05-20T05:33:29;91645.06;;;13.19;100.00
73941;BME280;62294;48.554;10.202;2023-05-20T05:35:55;91666.13;;;13.51;100.00
73941;BME280;62294;48.554;10.202;2023-05-20T05:38:24;91701.94;;;13.82;100.00
73941;BME280;62294;48.554;10.202;2023-05-20T05:40:51;91800.25;;;13.80;100.00
73941;BME280;62294;48.554;10.202;2023-05-20T05:43:18;91987.09;;;13.31;100.00
73941;BME280;62294;48.554;10.202;2023-05-20T05:45:45;92052.09;;;13.39;100.00
73941;BME280;62294;48.554;10.202;2023-05-20T05:48:11;92159.22;;;12.88;100.00
73941;BME280;62294;48.554;10.202;2023-05-20T05:50:38;92113.41;;;13.27;100.00
73941;BME280;62294;48.554;10.202;2023-05-20T05:53:04;92134.84;;;13.30;100.00
73941;BME280;62294;48.554;10.202;2023-05-20T05:55:31;92149.13;;;13.46;100.00
73941;BME280;62294;48.554;10.202;2023-05-20T05:57:59;92188.44;;;13.37;100.00
73941;BME280;62294;48.554;10.202;2023-05-20T06:00:25;92237.88;;;13.35;100.00
73941;BME280;62294;48.554;10.202;2023-05-20T06:02:52;92261.16;;;13.26;100.00
73941;BME280;62294;48.554;10.202;2023-05-20T06:05:19;92253.47;;;13.45;100.00
73941;BME280;62294;48.554;10.202;2023-05-20T06:07:45;92318.28;;;13.25;100.00
73941;BME280;62294;48.554;10.202;2023-05-20T06:10:12;92295.75;;;13.55;100.00
73941;BME280;62294;48.554;10.202;2023-05-20T06:12:39;92303.03;;;13.67;100.00
73941;BME280;62294;48.554;10.202;2023-05-20T06:15:05;92324.50;;;13.70;100.00
73941;BME280;62294;48.554;10.202;2023-05-20T06:17:33;92368.50;;;13.64;100.00
73941;BME280;62294;48.554;10.202;2023-05-20T06:19:59;92410.59;;;13.79;100.00
73941;BME280;62294;48.554;10.202;2023-05-20T06:22:26;92443.72;;;13.99;100.00
73941;BME280;62294;48.554;10.202;2023-05-20T06:24:54;92493.88;;;13.93;100.00
73941;BME280;62294;48.554;10.202;2023-05-20T06:27:22;92564.69;;;13.91;100.00
73941;BME280;62294;48.554;10.202;2023-05-20T06:29:48;92699.00;;;13.28;100.00
73941;BME280;62294;48.554;10.202;2023-05-20T06:32:14;92678.72;;;13.35;100.00
73941;BME280;62294;48.554;10.202;2023-05-20T06:34:41;92674.78;;;13.41;100.00
73941;BME280;62294;48.554;10.202;2023-05-20T06:37:07;92651.16;;;13.69;100.00
73941;BME280;62294;48.554;10.202;2023-05-20T06:39:34;92635.19;;;13.98;100.00
73941;BME280;62294;48.554;10.202;2023-05-20T06:42:01;92692.50;;;14.01;100.00
73941;BME280;62294;48.554;10.202;2023-05-20T06:44:27;92738.06;;;13.87;100.00
73941;BME280;62294;48.554;10.202;2023-05-20T06:46:54;92762.56;;;13.81;100.00
73941;BME280;62294;48.554;10.202;2023-05-20T06:49:21;92726.84;;;14.11;100.00
73941;BME280;62294;48.554;10.202;2023-05-20T06:51:49;92726.94;;;14.23;100.00
73941;BME280;62294;48.554;10.202;2023-05-20T06:54:16;92748.75;;;14.34;100.00
73941;BME280;62294;48.554;10.202;2023-05-20T06:56:42;92800.03;;;14.18;100.00
73941;BME280;62294;48.554;10.202;2023-05-20T06:59:09;92813.94;;;14.41;100.00
73941;BME280;62294;48.554;10.202;2023-05-20T07:01:36;92829.94;;;14.50;100.00
73941;BME280;62294;48.554;10.202;2023-05-20T07:04:03;92809.19;;;14.84;100.00
73941;BME280;62294;48.554;10.202;2023-05-20T07:06:30;92918.00;;;14.46;100.00
73941;BME280;62294;48.554;10.202;2023-05-20T07:08:56;92930.03;;;14.61;100.00
73941;BME280;62294;48.554;10.202;2023-05-20T07:11:23;92917.00;;;14.97;100.00
73941;BME280;62294;48.554;10.202;2023-05-20T07:13:50;93012.72;;;14.74;100.00
73941;BME280;62294;48.554;10.202;2023-05-20T07:16:16;93058.00;;;14.71;100.00
73941;BME280;62294;48.554;10.202;2023-05-20T07:18:43;93049.66;;;14.89;100.00
73941;BME280;62294;48.554;10.202;2023-05-20T07:21:09;93045.63;;;15.21;100.00
73941;BME280;62294;48.554;10.202;2023-05-20T07:23:36;93035.75;;;15.59;100.00
73941;BME280;62294;48.554;10.202;2023-05-20T07:26:03;93137.19;;;15.52;100.00
73941;BME280;62294;48.554;10.202;2023-05-20T07:28:29;93169.69;;;15.80;100.00
73941;BME280;62294;48.554;10.202;2023-05-20T07:30:56;93253.63;;;15.84;100.00
73941;BME280;62294;48.554;10.202;2023-05-20T07:33:25;93281.06;;;15.73;100.00
73941;BME280;62294;48.554;10.202;2023-05-20T07:35:51;93230.88;;;16.45;100.00
73941;BME280;62294;48.554;10.202;2023-05-20T07:38:20;93197.22;;;17.47;100.00
73941;BME280;62294;48.554;10.202;2023-05-20T07:40:46;93443.81;;;17.66;100.00
73941;BME280;62294;48.554;10.202;2023-05-20T07:43:13;93583.53;;;18.54;100.00
73941;BME280;62294;48.554;10.202;2023-05-20T07:45:40;93802.97;;;18.92;100.00
73941;BME280;62294;48.554;10.202;2023-05-20T07:48:06;94081.34;;;18.74;100.00
73941;BME280;62294;48.554;10.202;2023-05-20T07:50:34;94158.28;;;18.75;100.00
73941;BME280;62294;48.554;10.202;2023-05-20T07:53:01;94102.78;;;19.98;100.00
73941;BME280;62294;48.554;10.202;2023-05-20T07:55:28;94389.75;;;20.94;100.00
73941;BME280;62294;48.554;10.202;2023-05-20T07:57:54;94719.44;;;20.19;100.00
73941;BME280;62294;48.554;10.202;2023-05-20T08:00:21;94714.41;;;20.57;100.00
73941;BME280;62294;48.554;10.202;2023-05-20T08:02:48;94795.78;;;21.72;100.00
73941;BME280;62294;48.554;10.202;2023-05-20T08:05:15;94981.69;;;21.49;100.00
73941;BME280;62294;48.554;10.202;2023-05-20T08:07:42;95133.75;;;20.12;100.00
73941;BME280;62294;48.554;10.202;2023-05-20T08:10:08;95093.00;;;18.94;100.00
73941;BME280;62294;48.554;10.202;2023-05-20T08:12:35;95404.09;;;19.10;100.00
73941;BME280;62294;48.554;10.202;2023-05-20T08:15:02;95350.34;;;18.53;100.00
73941;BME280;62294;48.554;10.202;2023-05-20T08:17:28;95220.97;;;18.50;100.00
73941;BME280;62294;48.554;10.202;2023-05-20T08:19:55;95175.00;;;19.39;100.00
73941;BME280;62294;48.554;10.202;2023-05-20T08:22:22;95315.97;;;19.16;100.00
73941;BME280;62294;48.554;10.202;2023-05-20T08:24:48;95333.41;;;18.24;100.00
73941;BME280;62294;48.554;10.202;2023-05-20T08:27:14;95216.69;;;19.74;100.00
73941;BME280;62294;48.554;10.202;2023-05-20T08:29:43;95400.06;;;18.61;100.00
73941;BME280;62294;48.554;10.202;2023-05-20T08:32:10;95281.63;;;19.03;100.00
73941;BME280;62294;48.554;10.202;2023-05-20T08:34:36;95327.13;;;18.86;100.00
73941;BME280;62294;48.554;10.202;2023-05-20T08:37:03;95334.22;;;19.00;100.00
73941;BME280;62294;48.554;10.202;2023-05-20T08:39:31;95337.16;;;18.99;100.00
73941;BME280;62294;48.554;10.202;2023-05-20T08:41:58;95355.31;;;18.70;100.00
73941;BME280;62294;48.554;10.202;2023-05-20T08:44:25;95313.72;;;18.81;100.00
73941;BME280;62294;48.554;10.202;2023-05-20T08:46:53;95315.13;;;18.73;100.00
73941;BME280;62294;48.554;10.202;2023-05-20T08:49:22;95252.44;;;18.73;100.00
73941;BME280;62294;48.554;10.202;2023-05-20T08:51:48;95236.00;;;18.93;100.00
73941;BME280;62294;48.554;10.202;2023-05-20T08:54:16;95196.31;;;17.66;100.00
73941;BME280;62294;48.554;10.202;2023-05-20T08:56:43;95113.97;;;17.76;100.00
73941;BME280;62294;48.554;10.202;2023-05-20T08:59:09;95081.88;;;17.37;100.00
73941;BME280;62294;48.554;10.202;2023-05-20T09:01:40;95017.72;;;17.59;100.00
73941;BME280;62294;48.554;10.202;2023-05-20T09:04:10;95036.28;;;17.79;100.00
73941;BME280;62294;48.554;10.202;2023-05-20T09:06:44;94990.47;;;19.50;100.00
73941;BME280;62294;48.554;10.202;2023-05-20T09:09:12;95201.19;;;20.66;100.00
73941;BME280;62294;48.554;10.202;2023-05-20T09:11:40;95459.03;;;19.38;100.00
73941;BME280;62294;48.554;10.202;2023-05-20T09:14:07;95355.75;;;18.77;100.00
73941;BME280;62294;48.554;10.202;2023-05-20T09:16:34;95298.56;;;20.83;100.00
73941;BME280;62294;48.554;10.202;2023-05-20T09:19:01;95433.69;;;21.51;100.00
73941;BME280;62294;48.554;10.202;2023-05-20T09:21:28;95665.06;;;22.80;100.00
73941;BME280;62294;48.554;10.202;2023-05-20T09:23:55;95841.50;;;23.05;100.00
73941;BME280;62294;48.554;10.202;2023-05-20T09:26:28;95938.78;;;23.07;100.00
73941;BME280;62294;48.554;10.202;2023-05-20T09:28:56;96056.59;;;22.64;100.00
73941;BME280;62294;48.554;10.202;2023-05-20T09:31:27;95950.44;;;23.62;100.00
73941;BME280;62294;48.554;10.202;2023-05-20T09:33:54;96097.38;;;23.82;100.00
73941;BME280;62294;48.554;10.202;2023-05-20T09:36:22;96126.03;;;24.02;100.00
73941;BME280;62294;48.554;10.202;2023-05-20T09:38:51;93495.63;;;23.77;100.00
73941;BME280;62294;48.554;10.202;2023-05-20T09:41:19;93332.66;;;23.89;100.00
73941;BME280;62294;48.554;10.202;2023-05-20T09:43:49;93358.25;;;22.72;100.00
73941;BME280;62294;48.554;10.202;2023-05-20T09:46:17;93243.25;;;22.01;100.00
73941;BME280;62294;48.554;10.202;2023-05-20T09:48:45;93107.50;;;21.92;100.00
73941;BME280;62294;48.554;10.202;2023-05-20T09:51:12;93080.22;;;21.81;100.00
73941;BME280;62294;48.554;10.202;2023-05-20T09:53:40;93080.28;;;21.20;100.00
73941;BME280;62294;48.554;10.202;2023-05-20T09:56:06;92982.59;;;22.95;100.00
73941;BME280;62294;48.554;10.202;2023-05-20T09:58:35;93009.72;;;23.68;100.00
73941;BME280;62294;48.554;10.202;2023-05-20T10:01:02;93034.31;;;24.37;100.00
73941;BME280;62294;48.554;10.202;2023-05-20T10:03:29;93071.44;;;24.77;100.00
73941;BME280;62294;48.554;10.202;2023-05-20T10:09:02;92755.56;;;24.65;100.00
73941;BME280;62294;48.554;10.202;2023-05-20T10:11:48;92682.56;;;24.22;100.00
73941;BME280;62294;48.554;10.202;2023-05-20T10:19:35;92465.50;;;24.32;100.00
73941;BME280;62294;48.554;10.202;2023-05-20T10:22:03;92429.00;;;24.44;100.00
73941;BME280;62294;48.554;10.202;2023-05-20T10:24:40;92423.84;;;24.85;100.00
73941;BME280;62294;48.554;10.202;2023-05-20T10:27:10;92364.41;;;23.58;100.00
73941;BME280;62294;48.554;10.202;2023-05-20T10:29:42;92390.66;;;23.01;100.00
73941;BME280;62294;48.554;10.202;2023-05-20T10:32:09;92489.84;;;24.60;100.00
73941;BME280;62294;48.554;10.202;2023-05-20T10:34:46;92649.84;;;26.42;100.00
73941;BME280;62294;48.554;10.202;2023-05-20T10:37:24;92952.97;;;24.58;100.00
73941;BME280;62294;48.554;10.202;2023-05-20T10:39:51;92676.03;;;24.37;100.00
73941;BME280;62294;48.554;10.202;2023-05-20T10:42:27;92871.00;;;22.79;100.00
73941;BME280;62294;48.554;10.202;2023-05-20T10:44:54;92867.16;;;23.71;100.00
73941;BME280;62294;48.554;10.202;2023-05-20T10:47:21;93127.03;;;23.65;100.00
73941;BME280;62294;48.554;10.202;2023-05-20T10:49:51;93198.72;;;23.12;100.00
73941;BME280;62294;48.554;10.202;2023-05-20T10:52:18;93226.13;;;23.33;100.00
73941;BME280;62294;48.554;10.202;2023-05-20T10:54:47;93191.69;;;23.63;100.00
73941;BME280;62294;48.554;10.202;2023-05-20T10:57:17;93166.06;;;23.90;100.00
73941;BME280;62294;48.554;10.202;2023-05-20T10:59:43;93203.94;;;23.83;100.00
73941;BME280;62294;48.554;10.202;2023-05-20T11:02:10;93338.09;;;23.37;100.00
73941;BME280;62294;48.554;10.202;2023-05-20T11:04:42;93375.91;;;22.85;100.00
73941;BME280;62294;48.554;10.202;2023-05-20T11:07:08;93446.03;;;22.90;100.00
73941;BME280;62294;48.554;10.202;2023-05-20T11:09:35;93415.44;;;23.54;100.00
73941;BME280;62294;48.554;10.202;2023-05-20T11:12:02;93463.53;;;23.34;100.00
73941;BME280;62294;48.554;10.202;2023-05-20T11:14:29;93531.63;;;24.00;100.00
73941;BME280;62294;48.554;10.202;2023-05-20T11:16:57;93785.69;;;24.28;100.00
73941;BME280;62294;48.554;10.202;2023-05-20T11:19:25;94322.16;;;24.17;100.00
73941;BME280;62294;48.554;10.202;2023-05-20T11:21:52;94352.16;;;24.36;100.00
73941;BME280;62294;48.554;10.202;2023-05-20T11:24:24;94450.78;;;24.52;100.00
73941;BME280;62294;48.554;10.202;2023-05-20T11:26:55;94483.22;;;24.09;100.00
73941;BME280;62294;48.554;10.202;2023-05-20T11:29:25;94177.75;;;21.62;100.00
73941;BME280;62294;48.554;10.202;2023-05-20T11:31:51;93946.78;;;23.07;100.00
73941;BME280;62294;48.554;10.202;2023-05-20T11:34:21;94175.31;;;23.51;100.00
73941;BME280;62294;48.554;10.202;2023-05-20T11:36:56;94241.56;;;23.38;100.00
73941;BME280;62294;48.554;10.202;2023-05-20T11:39:23;94229.75;;;22.94;100.00
73941;BME280;62294;48.554;10.202;2023-05-20T11:41:50;94215.94;;;22.38;100.00
73941;BME280;62294;48.554;10.202;2023-05-20T11:44:18;93937.00;;;22.07;100.00
73941;BME280;62294;48.554;10.202;2023-05-20T11:46:46;93900.88;;;22.27;100.00
73941;BME280;62294;48.554;10.202;2023-05-20T11:49:14;93746.66;;;21.72;100.00
73941;BME280;62294;48.554;10.202;2023-05-20T11:51:42;92604.00;;;22.13;100.00
73941;BME280;62294;48.554;10.202;2023-05-20T11:54:09;92582.28;;;21.29;100.00
73941;BME280;62294;48.554;10.202;2023-05-20T11:56:37;92496.31;;;21.38;100.00
73941;BME280;62294;48.554;10.202;2023-05-20T11:59:05;92248.28;;;21.54;100.00
73941;BME280;62294;48.554;10.202;2023-05-20T12:01:34;92335.94;;;21.63;100.00
73941;BME280;62294;48.554;10.202;2023-05-20T12:04:06;92335.91;;;22.21;100.00
73941;BME280;62294;48.554;10.202;2023-05-20T12:06:34;92348.75;;;22.52;100.00
73941;BME280;62294;48.554;10.202;2023-05-20T12:09:03;92372.88;;;22.93;100.00
73941;BME280;62294;48.554;10.202;2023-05-20T12:11:33;92374.09;;;23.55;100.00
73941;BME280;62294;48.554;10.202;2023-05-20T12:14:01;92300.00;;;25.46;100.00
73941;BME280;62294;48.554;10.202;2023-05-20T12:16:30;92493.19;;;27.09;100.00
73941;BME280;62294;48.554;10.202;2023-05-20T12:18:58;93140.00;;;27.37;100.00
73941;BME280;62294;48.554;10.202;2023-05-20T12:21:27;93431.63;;;26.74;100.00
73941;BME280;62294;48.554;10.202;2023-05-20T12:23:53;93985.72;;;27.18;100.00
73941;BME280;62294;48.554;10.202;2023-05-20T12:26:24;94001.50;;;25.29;100.00
73941;BME280;62294;48.554;10.202;2023-05-20T12:28:51;93920.59;;;25.00;100.00
73941;BME280;62294;48.554;10.202;2023-05-20T12:31:18;93828.03;;;23.09;100.00
73941;BME280;62294;48.554;10.202;2023-05-20T12:33:45;93728.75;;;23.01;100.00
73941;BME280;62294;48.554;10.202;2023-05-20T12:36:12;93508.81;;;22.22;100.00
73941;BME280;62294;48.554;10.202;2023-05-20T12:38:39;93306.31;;;21.51;100.00
73941;BME280;62294;48.554;10.202;2023-05-20T12:41:06;92633.19;;;22.91;100.00
73941;BME280;62294;48.554;10.202;2023-05-20T12:43:34;93124.34;;;23.69;100.00
73941;BME280;62294;48.554;10.202;2023-05-20T12:46:02;93492.53;;;24.02;100.00
73941;BME280;62294;48.554;10.202;2023-05-20T12:48:29;93755.78;;;24.89;100.00
73941;BME280;62294;48.554;10.202;2023-05-20T12:50:56;93927.09;;;24.96;100.00